createdAt,value
2023-04-01T00:00:58.115Z,9.21
2023-04-01T00:03:28.400Z,9.15
2023-04-01T00:05:58.051Z,9.12
2023-04-01T00:08:27.861Z,9.12
2023-04-01T00:10:56.200Z,9.05
2023-04-01T00:13:24.897Z,9.07
2023-04-01T00:15:53.533Z,9.02
2023-04-01T00:18:21.637Z,8.99
2023-04-01T00:20:51.372Z,9.04
2023-04-01T00:23:19.866Z,9.05
2023-04-01T00:25:49.212Z,9.01
2023-04-01T00:28:19.675Z,8.99
2023-04-01T00:30:49.026Z,8.99
2023-04-01T00:33:17.634Z,8.93
2023-04-01T00:35:45.738Z,8.97
2023-04-01T00:38:14.634Z,8.97
2023-04-01T00:40:45.863Z,9.01
2023-04-01T00:43:19.393Z,9.00
2023-04-01T00:45:49.581Z,8.87
2023-04-01T00:48:21.854Z,8.79
2023-04-01T00:50:55.866Z,8.74
2023-04-01T00:53:24.871Z,8.72
2023-04-01T00:56:01.316Z,8.75
2023-04-01T00:58:32.747Z,8.72
2023-04-01T01:01:01.774Z,8.71
2023-04-01T01:03:30.065Z,8.63
2023-04-01T01:06:28.592Z,8.60
2023-04-01T01:09:14.830Z,8.67
2023-04-01T01:11:45.707Z,8.59
2023-04-01T01:14:28.402Z,8.64
2023-04-01T01:17:08.174Z,8.60
2023-04-01T01:19:51.447Z,8.58
2023-04-01T01:22:40.370Z,8.63
2023-04-01T01:25:30.531Z,8.71
2023-04-01T01:28:19.003Z,8.71
2023-04-01T01:31:05.053Z,8.63
2023-04-01T01:33:44.111Z,8.75
2023-04-01T01:36:15.362Z,8.68
2023-04-01T01:38:43.683Z,8.62
2023-04-01T01:41:14.220Z,8.68
2023-04-01T01:43:45.736Z,8.62
2023-04-01T01:46:21.546Z,8.53
2023-04-01T01:48:51.762Z,8.55
2023-04-01T01:51:22.975Z,8.55
2023-04-01T01:53:51.338Z,8.55
2023-04-01T01:56:24.801Z,8.53
2023-04-01T01:59:06.171Z,8.51
2023-04-01T02:01:39.534Z,8.50
2023-04-01T02:04:15.815Z,8.47
2023-04-01T02:07:01.664Z,8.42
2023-04-01T02:09:30.981Z,8.43
2023-04-01T02:12:05.277Z,8.43
2023-04-01T02:14:55.745Z,8.44
2023-04-01T02:17:27.619Z,8.44
2023-04-01T02:20:09.897Z,8.45
2023-04-01T02:22:42.979Z,8.39
2023-04-01T02:25:19.216Z,8.45
2023-04-01T02:27:47.693Z,8.41
2023-04-01T02:30:17.736Z,8.50
2023-04-01T02:32:46.188Z,8.50
2023-04-01T02:35:16.573Z,8.54
2023-04-01T02:37:46.369Z,8.52
2023-04-01T02:40:15.839Z,8.47
2023-04-01T02:42:44.005Z,8.48
2023-04-01T02:45:12.926Z,8.72
2023-04-01T02:47:40.944Z,8.63
2023-04-01T02:50:09.591Z,8.59
2023-04-01T02:52:37.924Z,8.62
2023-04-01T02:55:06.711Z,8.70
2023-04-01T02:57:34.692Z,8.60
2023-04-01T03:00:04.053Z,8.56
2023-04-01T03:02:32.030Z,8.57
2023-04-01T03:04:59.979Z,8.57
2023-04-01T03:07:27.839Z,8.50
2023-04-01T03:09:55.774Z,8.45
2023-04-01T03:12:23.667Z,8.46
2023-04-01T03:14:53.256Z,8.47
2023-04-01T03:17:21.423Z,8.42
2023-04-01T03:19:49.373Z,8.45
2023-04-01T03:22:17.401Z,8.44
2023-04-01T03:24:45.265Z,8.60
2023-04-01T03:27:13.874Z,8.69
2023-04-01T03:29:41.925Z,8.60
2023-04-01T03:32:10.497Z,8.64
2023-04-01T03:34:38.384Z,8.65
2023-04-01T03:37:06.946Z,8.57
2023-04-01T03:39:35.960Z,8.62
2023-04-01T03:42:03.864Z,8.66
2023-04-01T03:44:33.295Z,8.60
2023-04-01T03:47:01.587Z,8.48
2023-04-01T03:49:30.039Z,8.51
2023-04-01T03:51:57.923Z,8.59
2023-04-01T03:54:26.152Z,8.50
2023-04-01T03:56:54.004Z,8.55
2023-04-01T03:59:22.156Z,8.53
2023-04-01T04:01:50.408Z,8.54
2023-04-01T04:04:18.760Z,8.47
2023-04-01T04:06:47.185Z,8.49
2023-04-01T04:09:15.734Z,8.42
2023-04-01T04:11:43.862Z,8.45
2023-04-01T04:14:11.792Z,8.43
2023-04-01T04:16:39.800Z,8.44
2023-04-01T04:19:08.066Z,8.41
2023-04-01T04:21:35.920Z,8.32
2023-04-01T04:24:04.001Z,8.37
2023-04-01T04:26:51.806Z,8.30
2023-04-01T04:29:19.929Z,8.30
2023-04-01T04:31:48.121Z,8.29
2023-04-01T04:34:16.124Z,8.24
2023-04-01T04:36:44.158Z,8.23
2023-04-01T04:39:12.136Z,8.22
2023-04-01T04:41:41.686Z,8.19
2023-04-01T04:44:09.627Z,8.19
2023-04-01T04:46:39.080Z,8.21
2023-04-01T04:49:15.543Z,8.13
2023-04-01T04:51:43.708Z,8.12
2023-04-01T04:54:12.191Z,8.16
2023-04-01T04:57:00.441Z,8.22
2023-04-01T04:59:31.849Z,8.23
2023-04-01T05:02:13.900Z,8.27
2023-04-01T05:04:41.887Z,8.23
2023-04-01T05:07:12.019Z,8.28
2023-04-01T05:09:40.137Z,8.27
2023-04-01T05:12:08.304Z,8.23
2023-04-01T05:14:54.697Z,8.25
2023-04-01T05:17:22.979Z,8.26
2023-04-01T05:19:50.921Z,8.33
2023-04-01T05:22:19.045Z,8.36
2023-04-01T05:24:47.000Z,8.39
2023-04-01T05:27:15.020Z,8.42
2023-04-01T05:29:44.016Z,8.47
2023-04-01T05:32:28.619Z,8.45
2023-04-01T05:34:56.672Z,8.47
2023-04-01T05:37:24.529Z,8.50
2023-04-01T05:39:52.354Z,8.57
2023-04-01T05:42:20.626Z,8.53
2023-04-01T05:44:48.528Z,8.49
2023-04-01T05:47:34.768Z,8.59
2023-04-01T05:50:02.806Z,8.63
2023-04-01T05:52:30.789Z,8.70
2023-04-01T05:54:59.774Z,8.75
2023-04-01T05:57:27.968Z,8.74
2023-04-01T05:59:56.272Z,8.80
2023-04-01T06:02:24.749Z,8.80
2023-04-01T06:05:23.088Z,8.91
2023-04-01T06:08:02.281Z,8.96
2023-04-01T06:11:00.608Z,8.95
2023-04-01T06:13:40.600Z,8.94
2023-04-01T06:16:32.076Z,8.97
2023-04-01T06:19:06.303Z,9.06
2023-04-01T06:21:55.085Z,9.05
2023-04-01T06:24:32.725Z,9.05
2023-04-01T06:27:22.310Z,9.12
2023-04-01T06:30:09.346Z,9.09
2023-04-01T06:33:02.134Z,9.12
2023-04-01T06:35:42.037Z,9.23
2023-04-01T06:38:25.081Z,9.19
2023-04-01T06:40:57.513Z,9.39
2023-04-01T06:43:43.477Z,9.23
2023-04-01T06:46:27.868Z,9.43
2023-04-01T06:49:40.504Z,9.66
2023-04-01T06:52:41.416Z,9.60
2023-04-01T06:55:59.118Z,9.57
2023-04-01T06:58:53.273Z,9.63
2023-04-01T07:01:58.403Z,9.74
2023-04-01T07:04:37.333Z,9.72
2023-04-01T07:07:15.428Z,9.77
2023-04-01T07:09:56.633Z,9.85
2023-04-01T07:12:33.232Z,9.92
2023-04-01T07:15:32.986Z,9.94
2023-04-01T07:18:17.290Z,10.02
2023-04-01T07:20:46.292Z,10.08
2023-04-01T07:23:40.696Z,10.10
2023-04-01T07:26:24.160Z,10.09
2023-04-01T07:29:15.430Z,10.13
2023-04-01T07:32:18.160Z,10.15
2023-04-01T07:35:23.188Z,10.19
2023-04-01T07:38:26.487Z,10.20
2023-04-01T07:41:15.296Z,10.09
2023-04-01T07:44:02.542Z,9.98
2023-04-01T07:46:47.394Z,9.88
2023-04-01T07:49:34.630Z,9.96
2023-04-01T07:52:23.737Z,10.03
2023-04-01T07:55:03.933Z,10.13
2023-04-01T07:57:50.172Z,10.13
2023-04-01T08:01:03.537Z,10.24
2023-04-01T08:04:12.938Z,10.22
2023-04-01T08:07:18.560Z,10.27
2023-04-01T08:10:27.263Z,10.34
2023-04-01T08:12:58.573Z,10.37
2023-04-01T08:16:17.199Z,10.36
2023-04-01T08:19:07.650Z,10.30
2023-04-01T08:21:45.271Z,10.31
2023-04-01T08:24:47.665Z,10.32
2023-04-01T08:27:46.658Z,10.33
2023-04-01T08:30:32.444Z,10.31
2023-04-01T08:33:28.700Z,10.37
2023-04-01T08:36:21.897Z,10.47
2023-04-01T08:39:14.563Z,10.45
2023-04-01T08:42:00.807Z,10.53
2023-04-01T08:44:46.662Z,10.63
2023-04-01T08:47:36.295Z,10.84
2023-04-01T08:50:24.961Z,10.96
2023-04-01T08:53:21.678Z,11.18
2023-04-01T08:56:07.560Z,11.26
2023-04-01T08:59:11.216Z,11.25
2023-04-01T09:02:12.634Z,11.24
2023-04-01T09:05:24.386Z,11.37
2023-04-01T09:08:13.536Z,11.61
2023-04-01T09:10:47.884Z,11.45
2023-04-01T09:13:41.911Z,11.44
2023-04-01T09:16:36.646Z,11.54
2023-04-01T09:19:27.421Z,11.53
2023-04-01T09:22:18.940Z,11.57
2023-04-01T09:25:05.424Z,11.40
2023-04-01T09:27:46.032Z,11.55
2023-04-01T09:30:34.178Z,11.62
2023-04-01T09:33:14.127Z,11.80
2023-04-01T09:35:49.836Z,11.66
2023-04-01T09:38:24.559Z,11.59
2023-04-01T09:41:16.131Z,11.43
2023-04-01T09:44:04.353Z,11.50
2023-04-01T09:47:01.446Z,11.57
2023-04-01T09:49:41.784Z,11.52
2023-04-01T09:52:33.946Z,11.57
2023-04-01T09:55:17.545Z,11.53
2023-04-01T09:58:10.504Z,11.61
2023-04-01T10:01:03.420Z,11.72
2023-04-01T10:04:21.446Z,11.72
2023-04-01T10:07:02.784Z,11.62
2023-04-01T10:09:52.119Z,11.67
2023-04-01T10:12:51.856Z,11.81
2023-04-01T10:15:25.681Z,11.78
2023-04-01T10:18:19.835Z,12.15
2023-04-01T10:21:08.468Z,12.02
2023-04-01T10:23:50.886Z,12.05
2023-04-01T10:27:11.733Z,12.02
2023-04-01T10:30:19.568Z,12.20
2023-04-01T10:33:00.772Z,12.16
2023-04-01T10:36:00.598Z,12.09
2023-04-01T10:38:49.384Z,12.04
2023-04-01T10:41:45.324Z,12.08
2023-04-01T10:44:32.994Z,12.09
2023-04-01T10:47:23.751Z,12.40
2023-04-01T10:50:13.513Z,12.46
2023-04-01T10:53:19.183Z,12.35
2023-04-01T10:56:05.885Z,12.72
2023-04-01T10:59:13.217Z,12.42
2023-04-01T11:02:18.216Z,12.35
2023-04-01T11:05:27.509Z,12.52
2023-04-01T11:08:07.607Z,12.47
2023-04-01T11:10:44.873Z,12.44
2023-04-01T11:13:39.846Z,12.31
2023-04-01T11:16:20.569Z,12.50
2023-04-01T11:19:19.288Z,12.54
2023-04-01T11:22:21.721Z,12.85
2023-04-01T11:25:29.683Z,13.02
2023-04-01T11:28:15.958Z,12.84
2023-04-01T11:30:59.915Z,12.78
2023-04-01T11:33:58.511Z,12.72
2023-04-01T11:36:30.976Z,12.95
2023-04-01T11:39:22.634Z,12.82
2023-04-01T11:42:16.700Z,13.65
2023-04-01T11:45:36.834Z,13.61
2023-04-01T11:48:29.499Z,13.74
2023-04-01T11:51:00.447Z,14.05
2023-04-01T11:53:46.062Z,14.07
2023-04-01T11:56:16.022Z,13.80
2023-04-01T11:59:11.597Z,14.05
2023-04-01T12:01:51.020Z,14.35
2023-04-01T12:04:42.361Z,14.38
2023-04-01T12:07:18.859Z,14.41
2023-04-01T12:09:57.346Z,15.02
2023-04-01T12:12:57.974Z,14.39
2023-04-01T12:16:05.529Z,14.43
2023-04-01T12:19:04.403Z,14.79
2023-04-01T12:21:44.034Z,15.10
2023-04-01T12:24:27.083Z,14.71
2023-04-01T12:27:05.118Z,14.75
2023-04-01T12:29:38.815Z,14.25
2023-04-01T12:32:47.419Z,14.12
2023-04-01T12:35:43.392Z,13.91
2023-04-01T12:38:27.231Z,13.74
2023-04-01T12:41:08.275Z,13.87
2023-04-01T12:43:54.515Z,13.56
2023-04-01T12:46:41.909Z,13.61
2023-04-01T12:49:34.472Z,13.96
2023-04-01T12:52:10.546Z,14.40
2023-04-01T12:54:58.447Z,14.67
2023-04-01T12:57:57.121Z,13.93
2023-04-01T13:00:45.005Z,13.67
2023-04-01T13:03:49.733Z,13.09
2023-04-01T13:06:31.984Z,12.68
2023-04-01T13:09:22.002Z,12.55
2023-04-01T13:12:08.539Z,12.95
2023-04-01T13:14:36.382Z,12.94
2023-04-01T13:17:24.267Z,13.08
2023-04-01T13:20:05.648Z,12.94
2023-04-01T13:23:07.917Z,12.61
2023-04-01T13:26:06.876Z,12.51
2023-04-01T13:28:53.656Z,12.92
2023-04-01T13:31:36.203Z,13.11
2023-04-01T13:34:26.944Z,13.05
2023-04-01T13:37:07.618Z,13.24
2023-04-01T13:39:39.659Z,14.98
2023-04-01T13:42:19.454Z,16.04
2023-04-01T13:45:16.130Z,15.78
2023-04-01T13:48:32.455Z,15.04
2023-04-01T13:51:12.906Z,15.33
2023-04-01T13:53:54.123Z,16.09
2023-04-01T13:56:34.877Z,15.83
2023-04-01T13:59:34.916Z,15.22
2023-04-01T14:02:15.962Z,15.49
2023-04-01T14:05:26.542Z,14.74
2023-04-01T14:08:11.834Z,14.96
2023-04-01T14:10:56.538Z,14.43
2023-04-01T14:13:40.405Z,15.00
2023-04-01T14:16:30.560Z,14.02
2023-04-01T14:19:29.824Z,13.62
2023-04-01T14:22:37.780Z,12.87
2023-04-01T14:25:40.339Z,12.10
2023-04-01T14:28:29.499Z,11.90
2023-04-01T14:31:01.628Z,12.47
2023-04-01T14:33:47.681Z,13.07
2023-04-01T14:36:30.640Z,13.63
2023-04-01T14:39:20.061Z,12.98
2023-04-01T14:42:26.117Z,12.61
2023-04-01T14:45:27.133Z,12.75
2023-04-01T14:48:07.141Z,12.57
2023-04-01T14:51:17.428Z,12.28
2023-04-01T14:53:55.974Z,11.93
2023-04-01T14:56:39.043Z,11.88
2023-04-01T14:59:15.916Z,11.86
2023-04-01T15:01:49.234Z,11.80
2023-04-01T15:04:39.361Z,11.65
2023-04-01T15:07:46.264Z,11.56
2023-04-01T15:10:49.527Z,11.69
2023-04-01T15:13:20.380Z,11.48
2023-04-01T15:16:09.760Z,11.59
2023-04-01T15:19:01.155Z,11.40
2023-04-01T15:21:41.236Z,11.42
2023-04-01T15:24:25.742Z,11.35
2023-04-01T15:27:22.550Z,11.24
2023-04-01T15:30:01.981Z,11.20
2023-04-01T15:32:51.972Z,11.18
2023-04-01T15:35:28.809Z,11.24
2023-04-01T15:38:03.088Z,11.46
2023-04-01T15:41:03.752Z,11.26
2023-04-01T15:43:42.370Z,11.43
2023-04-01T15:46:20.670Z,11.36
2023-04-01T15:49:10.957Z,11.55
2023-04-01T15:51:57.546Z,11.53
2023-04-01T15:54:52.917Z,11.32
2023-04-01T15:57:31.058Z,11.57
2023-04-01T16:00:17.683Z,11.45
2023-04-01T16:03:08.641Z,11.22
2023-04-01T16:05:39.043Z,11.25
2023-04-01T16:08:46.097Z,11.14
2023-04-01T16:11:57.022Z,11.14
2023-04-01T16:14:40.502Z,11.16
2023-04-01T16:17:23.674Z,11.31
2023-04-01T16:20:19.274Z,11.30
2023-04-01T16:22:58.314Z,11.20
2023-04-01T16:25:48.413Z,11.14
2023-04-01T16:28:18.201Z,11.11
2023-04-01T16:31:07.974Z,11.09
2023-04-01T16:33:38.943Z,10.99
2023-04-01T16:36:25.698Z,10.99
2023-04-01T16:39:23.927Z,10.96
2023-04-01T16:42:28.861Z,11.10
2023-04-01T16:45:09.549Z,10.72
2023-04-01T16:47:43.617Z,10.97
2023-04-01T16:50:20.989Z,10.88
2023-04-01T16:53:03.776Z,10.83
2023-04-01T16:56:18.016Z,10.75
2023-04-01T16:59:04.815Z,10.79
2023-04-01T17:01:46.112Z,10.89
2023-04-01T17:04:35.986Z,10.91
2023-04-01T17:07:19.377Z,10.80
2023-04-01T17:10:12.134Z,10.82
2023-04-01T17:12:56.021Z,10.87
2023-04-01T17:16:00.733Z,10.79
2023-04-01T17:18:43.667Z,10.76
2023-04-01T17:21:37.261Z,10.75
2023-04-01T17:24:39.493Z,10.65
2023-04-01T17:27:28.817Z,10.66
2023-04-01T17:30:04.110Z,10.57
2023-04-01T17:33:00.076Z,10.52
2023-04-01T17:35:34.974Z,10.65
2023-04-01T17:38:21.428Z,10.62
2023-04-01T17:41:07.427Z,10.57
2023-04-01T17:43:52.721Z,10.50
2023-04-01T17:46:42.407Z,10.62
2023-04-01T17:49:28.443Z,10.60
2023-04-01T17:52:21.291Z,10.58
2023-04-01T17:55:01.040Z,10.54
2023-04-01T17:57:44.857Z,10.45
2023-04-01T18:00:25.555Z,10.46
2023-04-01T18:03:12.733Z,10.50
2023-04-01T18:06:01.065Z,10.54
2023-04-01T18:09:15.227Z,10.44
2023-04-01T18:12:26.748Z,10.43
2023-04-01T18:15:25.700Z,10.41
2023-04-01T18:18:12.014Z,10.44
2023-04-01T18:21:07.961Z,10.42
2023-04-01T18:24:02.390Z,10.46
2023-04-01T18:26:34.706Z,10.40
2023-04-01T18:29:23.234Z,10.39
2023-04-01T18:31:57.709Z,10.47
2023-04-01T18:34:50.273Z,10.37
2023-04-01T18:37:32.899Z,10.34
2023-04-01T18:40:32.878Z,10.38
2023-04-01T18:43:17.382Z,10.36
2023-04-01T18:46:11.056Z,10.36
2023-04-01T18:49:01.634Z,10.28
2023-04-01T18:51:40.521Z,10.24
2023-04-01T18:54:33.327Z,10.27
2023-04-01T18:57:15.810Z,10.33
2023-04-01T18:59:54.390Z,10.34
2023-04-01T19:02:30.695Z,10.37
2023-04-01T19:05:14.060Z,10.35
2023-04-01T19:07:45.072Z,10.24
2023-04-01T19:10:34.756Z,10.33
2023-04-01T19:13:13.941Z,10.36
2023-04-01T19:16:14.042Z,10.31
2023-04-01T19:18:54.842Z,10.35
2023-04-01T19:21:28.551Z,10.31
2023-04-01T19:24:02.189Z,10.23
2023-04-01T19:26:32.794Z,10.25
2023-04-01T19:29:18.042Z,10.30
2023-04-01T19:32:13.646Z,10.37
2023-04-01T19:34:58.958Z,10.26
2023-04-01T19:37:34.749Z,10.34
2023-04-01T19:40:11.734Z,10.22
2023-04-01T19:43:02.866Z,10.24
2023-04-01T19:45:40.187Z,10.28
2023-04-01T19:48:13.891Z,10.33
2023-04-01T19:50:48.199Z,10.23
2023-04-01T19:53:37.828Z,10.21
2023-04-01T19:56:24.774Z,10.28
2023-04-01T19:58:55.572Z,10.31
2023-04-01T20:01:43.705Z,10.25
2023-04-01T20:04:31.358Z,10.21
2023-04-01T20:07:04.898Z,10.26
2023-04-01T20:09:41.439Z,10.24
2023-04-01T20:12:25.744Z,10.17
2023-04-01T20:15:00.049Z,10.20
2023-04-01T20:17:47.226Z,10.18
2023-04-01T20:20:35.779Z,10.17
2023-04-01T20:23:38.875Z,10.19
2023-04-01T20:26:15.263Z,10.14
2023-04-01T20:28:46.239Z,10.17
2023-04-01T20:31:27.493Z,10.19
2023-04-01T20:34:04.677Z,10.16
2023-04-01T20:36:52.810Z,10.18
2023-04-01T20:40:03.900Z,10.13
2023-04-01T20:43:02.931Z,10.07
2023-04-01T20:45:56.123Z,10.15
2023-04-01T20:48:36.143Z,10.10
2023-04-01T20:51:24.405Z,10.05
2023-04-01T20:54:04.567Z,10.01
2023-04-01T20:56:56.620Z,10.03
2023-04-01T20:59:46.455Z,10.01
2023-04-01T21:02:32.753Z,9.99
2023-04-01T21:05:24.478Z,9.98
2023-04-01T21:07:59.059Z,10.10
2023-04-01T21:10:26.870Z,10.09
2023-04-01T21:13:11.489Z,10.05
2023-04-01T21:15:44.017Z,9.97
2023-04-01T21:18:21.355Z,10.02
2023-04-01T21:21:26.965Z,10.00
2023-04-01T21:24:30.463Z,10.02
2023-04-01T21:27:07.729Z,10.07
2023-04-01T21:29:56.633Z,10.01
2023-04-01T21:32:39.344Z,10.01
2023-04-01T21:35:38.282Z,9.93
2023-04-01T21:38:25.781Z,9.92
2023-04-01T21:40:59.358Z,9.92
2023-04-01T21:43:36.422Z,9.92
2023-04-01T21:46:26.369Z,9.94
2023-04-01T21:49:28.203Z,9.96
2023-04-01T21:52:17.346Z,9.85
2023-04-01T21:55:06.910Z,9.81
2023-04-01T21:57:43.372Z,9.80
2023-04-01T22:00:23.321Z,9.89
2023-04-01T22:03:06.098Z,9.88
2023-04-01T22:05:56.232Z,9.90
2023-04-01T22:08:37.824Z,9.92
2023-04-01T22:11:36.113Z,9.95
2023-04-01T22:14:18.753Z,9.91
2023-04-01T22:16:58.849Z,9.84
2023-04-01T22:19:41.341Z,9.88
2023-04-01T22:22:16.661Z,9.87
2023-04-01T22:24:50.367Z,9.87
2023-04-01T22:27:47.686Z,9.80
2023-04-01T22:30:29.318Z,9.81
2023-04-01T22:33:09.703Z,9.81
2023-04-01T22:35:59.278Z,9.80
2023-04-01T22:38:28.315Z,9.84
2023-04-01T22:41:10.035Z,9.77
2023-04-01T22:43:40.828Z,9.80
2023-04-01T22:46:31.958Z,9.79
2023-04-01T22:49:17.641Z,9.74
2023-04-01T22:51:46.105Z,9.83
2023-04-01T22:54:28.222Z,9.82
2023-04-01T22:57:04.308Z,9.81
2023-04-01T22:59:55.790Z,9.83
2023-04-01T23:02:39.423Z,9.88
2023-04-01T23:05:14.215Z,9.84
2023-04-01T23:08:01.381Z,9.85
2023-04-01T23:10:42.626Z,9.83
2023-04-01T23:13:19.444Z,9.86
2023-04-01T23:15:48.898Z,9.79
2023-04-01T23:18:22.122Z,9.76
2023-04-01T23:21:27.193Z,9.70
2023-04-01T23:24:17.558Z,9.59
2023-04-01T23:27:02.573Z,9.54
2023-04-01T23:29:31.140Z,9.55
2023-04-01T23:32:03.006Z,9.43
2023-04-01T23:34:36.224Z,9.51
2023-04-01T23:37:17.832Z,9.50
2023-04-01T23:39:59.588Z,9.38
2023-04-01T23:42:34.578Z,9.44
2023-04-01T23:45:06.549Z,9.40
2023-04-01T23:47:38.224Z,9.42
2023-04-01T23:50:19.325Z,9.46
2023-04-01T23:52:52.638Z,9.37
2023-04-01T23:55:27.929Z,9.39
2023-04-01T23:58:18.194Z,9.23
